Airfield :
LOGIN :

Register | Disclaimer

   EN    FR    IT 

 










Legend :    VFR   Marginal VFR   IFR   Intensive IFR   Very Intensive IFR
Visi :
Ceiling :
>= 8 km
>= 3000ft
5 to 8 km
1000 to 3000 ft
1500m to 5 km
500 to 1000 ft
800 to 1500m
200 to 500 ft
< 800m
< 200 ft
Symbols :   Thunderstorms  Fog  Heavy snow  Heavy precipitations  Wind > 20 kt
SIGMETs :     Misc.  Thunderstorms  Icing  Turbulence  Mountain Waves  Volcanic Ashes







- Airport Elevation : 1411 ft
- IATA code : SZG


LOWS - Salzburg

CURRENT METAR :
  • 100850Z 30009KT 260V320 4700 -SNRA FEW005 SCT008 BKN012 01/00 Q1019 RESN BECMG 5000 SCT012 BKN025

EXPIRED METARs :
  • 100820Z 36007KT 320V020 2500 SHSNRA FEW004 SCT007 BKN012 01/00 Q1018 TEMPO 1200 SHSN BKN007
  • 100750Z 31009KT 6000 -RASN FEW004 SCT014 BKN022 01/00 Q1017 RESN TEMPO 2000 SHSNRA BKN012
  • 100720Z 26006KT 4500 -SNRA FEW004 SCT008 BKN014 00/M00 Q1017 RESN TEMPO 2000 SHSNRA BKN008
  • 100650Z 30010KT 4200 SHRASN FEW005 BKN011 BKN017 02/01 Q1016 TEMPO 2000 SHSNRA BKN008
  • 100620Z 29012KT 4500 SHSNRA FEW007 BKN011 BKN018 02/01 Q1016 BECMG 8000 -SHRASN SCT012 BKN020

TAF AMD TAF LOWS
Valid from the 10 at 08:00 until the 11 at 06:00 UTC


100821Z 1008/1106 28010KT 9999 -SHRASN SCT020 BKN040 TX05/1013Z TN03/1017Z
TEMPO 1008/1018 28020G30KT
TEMPO 1008/1010 1200 SHSN BKN007
BECMG 1016/1018 -SHSN
TEMPO 1018/1106 29015G25KT 1200 SHSN BKN007 BKN012
No reported NOTAMs for that airfield.



MET'MAP, your aeronautical weather chart ! - Copyright ORBIFLY December 2007 - Disclaimer

ORBIFLY MET'MAP TEAM :

Programming & Development : Alexandra Zaïnal
Concept & Development : Baudouin d'Aumeries
Co-Development & Prog : Marc-Olivier Méhu
Technical & hardware support : Manuel Goepfert

Contact : metmap@orbifly.com




SOURCES & CREDITS :

   NOAA